Turtlepoint, Pennsylvania
Current Conditions -  °F | °C
As of 3:43 PM on Thursday 27 Nov 2014 (Local Time) from KBFD Reporting Station
Light Snow Light Snow  
Wind Chill: 20°   Ceiling: 3400
Heat Index: 29°   Visibility: 1.7mi
Dew Point: 23°   Wind: 10mph
Humidity: 78%   Direction: 300°WNW
Pressure: 29.98"   Gusts: NA
Location:  41.87°N, 78.34°W
Report Text: KBFD 272043Z AUTO 30009KT 1 3/4SM -SN FEW028 BKN034 OVC046 M02/M05 A2998 RMK AO2 SNB1959 P0000 T10171050
Loading
Personal Weather Stations






























Interactive Weather Map New forecast layout! Learn more

10-Day Weather Forecast

Advertisements
Track Severe Weather on mobile